Time;durP1;ratioP1;P1;durP2;ratioP2;P2;SDS_P1;SDS_P2;PMS_P1;PMS_P2;Temp;Humidity;BMP_temperature;BMP_pressure;BME280_temperature;BME280_humidity;BME280_pressure;Samples;Min_cycle;Max_cycle;Signal;HPM_P1;HPM_P2
2023/08/07 00:00:09;;;;;;;25.48;4.13;;;;;;;;;;4987216;28;20040;-70
2023/08/07 00:02:37;;;;;;;25.80;4.75;;;;;;;;;;5008221;28;22436;-70
2023/08/07 00:05:06;;;;;;;17.35;3.97;;;;;;;;;;5021036;28;20039;-71
2023/08/07 00:07:31;;;;;;;19.15;3.85;;;;;;;;;;4982723;28;20048;-69
2023/08/07 00:09:57;;;;;;;20.65;4.60;;;;;;;;;;5001938;28;20625;-71
2023/08/07 00:12:26;;;;;;;19.50;4.25;;;;;;;;;;5011988;28;20049;-71
2023/08/07 00:14:54;;;;;;;17.63;4.15;;;;;;;;;;5041214;28;20041;-72
2023/08/07 00:17:19;;;;;;;24.00;4.35;;;;;;;;;;5021408;28;20041;-70
2023/08/07 00:19:47;;;;;;;20.13;4.32;;;;;;;;;;5020667;28;20033;-70
2023/08/07 00:22:15;;;;;;;30.38;5.63;;;;;;;;;;5031426;28;20033;-72
2023/08/07 00:24:40;;;;;;;21.33;4.57;;;;;;;;;;5023472;28;20090;-69
2023/08/07 00:27:12;;;;;;;24.00;4.00;;;;;;;;;;5018280;28;20052;-74
2023/08/07 00:29:43;;;;;;;22.30;4.75;;;;;;;;;;5000941;28;20032;-73
2023/08/07 00:32:09;;;;;;;19.60;4.10;;;;;;;;;;4990382;28;21103;-73
2023/08/07 00:34:34;;;;;;;21.35;5.05;;;;;;;;;;5015493;28;20037;-73
2023/08/07 00:37:02;;;;;;;28.17;5.20;;;;;;;;;;5016229;28;20037;-73
2023/08/07 00:39:27;;;;;;;30.92;5.00;;;;;;;;;;5010814;28;20120;-72
2023/08/07 00:41:54;;;;;;;28.33;5.07;;;;;;;;;;5006879;28;20047;-68
2023/08/07 00:44:19;;;;;;;22.48;4.95;;;;;;;;;;5020785;28;20125;-69
2023/08/07 00:46:45;;;;;;;18.70;4.00;;;;;;;;;;5018520;28;20449;-71
2023/08/07 00:49:11;;;;;;;26.13;5.15;;;;;;;;;;5040841;28;20036;-70
2023/08/07 00:51:40;;;;;;;24.45;4.63;;;;;;;;;;5029857;28;20028;-70
2023/08/07 00:54:09;;;;;;;25.55;4.03;;;;;;;;;;5017929;28;20103;-70
2023/08/07 00:56:37;;;;;;;22.42;4.47;;;;;;;;;;5026842;28;20048;-72
2023/08/07 00:59:06;;;;;;;22.80;4.88;;;;;;;;;;5019766;28;20747;-71
2023/08/07 01:01:36;;;;;;;24.83;4.93;;;;;;;;;;4994173;28;20036;-69
2023/08/07 01:04:24;;;;;;;21.77;4.10;;;;;;;;;;5015906;28;20041;-68
2023/08/07 01:06:50;;;;;;;18.88;3.72;;;;;;;;;;5007354;28;20037;-69
2023/08/07 01:09:15;;;;;;;22.40;3.85;;;;;;;;;;5018324;28;20045;-70
2023/08/07 01:11:49;;;;;;;26.27;4.45;;;;;;;;;;5018209;28;20041;-68
2023/08/07 01:14:38;;;;;;;24.77;3.90;;;;;;;;;;5042919;28;20529;-70
2023/08/07 01:17:03;;;;;;;22.98;4.15;;;;;;;;;;5024516;28;20034;-69
2023/08/07 01:19:30;;;;;;;25.10;4.78;;;;;;;;;;5018635;28;20073;-70
2023/08/07 01:22:10;;;;;;;17.10;4.28;;;;;;;;;;5028782;28;20041;-69
2023/08/07 01:24:37;;;;;;;20.92;4.18;;;;;;;;;;5003118;28;20044;-71
2023/08/07 01:27:10;;;;;;;18.65;3.55;;;;;;;;;;5014510;28;20051;-68
2023/08/07 01:29:49;;;;;;;24.98;4.82;;;;;;;;;;5026125;28;20060;-70
2023/08/07 01:32:23;;;;;;;19.30;4.43;;;;;;;;;;5023168;28;20120;-69
2023/08/07 01:34:49;;;;;;;18.42;3.90;;;;;;;;;;5017178;28;20553;-70
2023/08/07 01:37:17;;;;;;;20.98;3.97;;;;;;;;;;5013390;28;20843;-71
2023/08/07 01:39:43;;;;;;;22.10;3.90;;;;;;;;;;5043837;28;20033;-67
2023/08/07 01:42:09;;;;;;;18.63;4.47;;;;;;;;;;5018043;28;20049;-67
2023/08/07 01:44:41;;;;;;;24.95;4.75;;;;;;;;;;5007998;28;20125;-70
2023/08/07 01:47:09;;;;;;;15.23;3.60;;;;;;;;;;5017739;28;22462;-70
2023/08/07 01:49:36;;;;;;;22.08;4.57;;;;;;;;;;5028498;28;20041;-70
2023/08/07 01:52:01;;;;;;;26.80;4.70;;;;;;;;;;5031782;28;20039;-71
2023/08/07 01:54:26;;;;;;;18.05;4.07;;;;;;;;;;4995157;28;20046;-70
2023/08/07 01:56:52;;;;;;;19.13;3.50;;;;;;;;;;5009597;27;20036;-70
2023/08/07 01:59:17;;;;;;;18.65;4.07;;;;;;;;;;5020138;28;20036;-72
2023/08/07 02:01:42;;;;;;;18.98;4.30;;;;;;;;;;4981469;28;20193;-69
2023/08/07 02:04:08;;;;;;;24.85;4.82;;;;;;;;;;5004501;28;20131;-71
2023/08/07 02:06:33;;;;;;;25.38;5.18;;;;;;;;;;5014551;28;20136;-69
2023/08/07 02:08:59;;;;;;;26.55;5.05;;;;;;;;;;5021223;28;20105;-72
2023/08/07 02:11:24;;;;;;;23.23;4.38;;;;;;;;;;5018240;28;20116;-67
2023/08/07 02:13:50;;;;;;;25.17;4.95;;;;;;;;;;5017780;28;20037;-70
2023/08/07 02:16:17;;;;;;;28.08;4.80;;;;;;;;;;5015911;28;20064;-72
2023/08/07 02:18:45;;;;;;;30.48;5.88;;;;;;;;;;5014908;28;21074;-69
2023/08/07 02:21:10;;;;;;;33.55;6.38;;;;;;;;;;5018520;28;20029;-71
2023/08/07 02:23:36;;;;;;;28.15;4.68;;;;;;;;;;5014750;28;20064;-74
2023/08/07 02:26:01;;;;;;;16.70;4.30;;;;;;;;;;5044921;28;21013;-71
2023/08/07 02:28:29;;;;;;;28.77;5.70;;;;;;;;;;5015184;28;20035;-73
2023/08/07 02:30:55;;;;;;;32.78;5.43;;;;;;;;;;5034940;28;20043;-69
2023/08/07 02:33:23;;;;;;;33.83;5.57;;;;;;;;;;5036911;28;20872;-70
2023/08/07 02:35:53;;;;;;;24.95;4.28;;;;;;;;;;4999545;28;20072;-71
2023/08/07 02:38:18;;;;;;;26.83;5.22;;;;;;;;;;5044773;28;20037;-70
2023/08/07 02:40:46;;;;;;;25.23;4.63;;;;;;;;;;5040737;28;20419;-73
2023/08/07 02:43:11;;;;;;;22.42;4.22;;;;;;;;;;5017233;28;20041;-72
2023/08/07 02:45:37;;;;;;;30.95;4.80;;;;;;;;;;5029927;28;20054;-72
2023/08/07 02:48:05;;;;;;;32.97;5.18;;;;;;;;;;4983015;28;20048;-71
2023/08/07 02:50:32;;;;;;;25.98;5.18;;;;;;;;;;5013895;28;20037;-73
2023/08/07 02:53:00;;;;;;;26.70;5.45;;;;;;;;;;5004083;28;20037;-74
2023/08/07 02:55:26;;;;;;;24.90;4.80;;;;;;;;;;5017965;28;20099;-71
2023/08/07 02:57:54;;;;;;;28.00;5.30;;;;;;;;;;5014827;28;20041;-74
2023/08/07 03:00:19;;;;;;;25.38;3.83;;;;;;;;;;4986690;28;20033;-71
2023/08/07 03:02:45;;;;;;;28.70;4.65;;;;;;;;;;5000069;28;20040;-70
2023/08/07 03:05:10;;;;;;;22.55;4.03;;;;;;;;;;5020010;28;20041;-74
2023/08/07 03:07:36;;;;;;;20.90;4.03;;;;;;;;;;5041222;28;20044;-73
2023/08/07 03:10:07;;;;;;;16.33;4.03;;;;;;;;;;5021552;28;20111;-69
2023/08/07 03:12:32;;;;;;;27.40;4.25;;;;;;;;;;5016875;28;20041;-71
2023/08/07 03:14:57;;;;;;;14.02;3.47;;;;;;;;;;5016058;28;20968;-76
2023/08/07 03:17:23;;;;;;;17.15;3.47;;;;;;;;;;5007896;28;20056;-73
2023/08/07 03:19:51;;;;;;;27.40;4.90;;;;;;;;;;5006509;28;20797;-71
2023/08/07 03:22:20;;;;;;;23.73;4.18;;;;;;;;;;5022662;28;20037;-72
2023/08/07 03:24:49;;;;;;;20.92;4.80;;;;;;;;;;5027661;28;20052;-72
2023/08/07 03:27:14;;;;;;;21.77;4.00;;;;;;;;;;5018307;28;20079;-72
2023/08/07 03:29:40;;;;;;;20.05;3.30;;;;;;;;;;5015550;28;20893;-73
2023/08/07 03:32:05;;;;;;;23.85;4.63;;;;;;;;;;5023063;28;20603;-72
2023/08/07 03:34:31;;;;;;;14.13;3.55;;;;;;;;;;5037965;28;20064;-75
2023/08/07 03:36:59;;;;;;;17.50;4.32;;;;;;;;;;5017788;28;20041;-74
2023/08/07 03:39:28;;;;;;;22.02;4.50;;;;;;;;;;5011746;28;20142;-71
2023/08/07 03:41:56;;;;;;;21.67;4.40;;;;;;;;;;5031206;28;20091;-71
2023/08/07 03:44:25;;;;;;;22.00;4.10;;;;;;;;;;5039950;28;20036;-74
2023/08/07 03:46:57;;;;;;;26.00;4.82;;;;;;;;;;5013718;28;20068;-73
2023/08/07 03:49:25;;;;;;;17.98;4.03;;;;;;;;;;5014989;28;20033;-73
2023/08/07 03:51:58;;;;;;;19.63;4.07;;;;;;;;;;5016276;28;20136;-75
2023/08/07 03:54:27;;;;;;;21.30;3.72;;;;;;;;;;5039809;28;20036;-72
2023/08/07 03:56:52;;;;;;;23.92;4.40;;;;;;;;;;5019117;27;20048;-71
2023/08/07 03:59:20;;;;;;;21.55;4.40;;;;;;;;;;5024347;28;20144;-75
2023/08/07 04:01:48;;;;;;;18.17;4.10;;;;;;;;;;5038623;28;20501;-70
2023/08/07 04:04:14;;;;;;;20.05;4.70;;;;;;;;;;5011157;28;20037;-72
2023/08/07 04:06:39;;;;;;;25.23;4.22;;;;;;;;;;5047566;28;22226;-72
2023/08/07 04:09:04;;;;;;;24.95;5.10;;;;;;;;;;5031814;28;20136;-75
2023/08/07 04:11:30;;;;;;;20.63;3.92;;;;;;;;;;5011011;28;20037;-74
2023/08/07 04:13:56;;;;;;;20.23;4.20;;;;;;;;;;5046139;28;20041;-77
2023/08/07 04:16:24;;;;;;;29.55;5.60;;;;;;;;;;5010451;28;20041;-72
2023/08/07 04:18:53;;;;;;;21.95;4.75;;;;;;;;;;5016864;28;20719;-73
2023/08/07 04:21:22;;;;;;;25.75;4.63;;;;;;;;;;5018226;28;20041;-73
2023/08/07 04:23:48;;;;;;;21.35;4.38;;;;;;;;;;5029782;28;21134;-72
2023/08/07 04:26:14;;;;;;;23.98;4.63;;;;;;;;;;5028334;28;20037;-71
2023/08/07 04:28:39;;;;;;;24.60;4.53;;;;;;;;;;5005420;28;20032;-72
2023/08/07 04:31:05;;;;;;;25.67;4.57;;;;;;;;;;5012533;28;20057;-73
2023/08/07 04:33:33;;;;;;;19.63;3.75;;;;;;;;;;5042247;28;20037;-73
2023/08/07 04:35:58;;;;;;;26.58;4.53;;;;;;;;;;5016428;28;20037;-74
2023/08/07 04:38:27;;;;;;;24.65;5.00;;;;;;;;;;4980562;28;20407;-74
2023/08/07 04:40:53;;;;;;;23.40;4.53;;;;;;;;;;5024833;28;20111;-76
2023/08/07 04:43:24;;;;;;;20.63;5.15;;;;;;;;;;5027079;28;20064;-74
2023/08/07 04:45:51;;;;;;;31.33;5.47;;;;;;;;;;5028805;28;20775;-72
2023/08/07 04:48:17;;;;;;;29.25;4.70;;;;;;;;;;5022021;28;20083;-72
2023/08/07 04:50:43;;;;;;;27.45;5.57;;;;;;;;;;5019291;28;20141;-73
2023/08/07 04:53:08;;;;;;;18.35;4.32;;;;;;;;;;5011842;28;20036;-75
2023/08/07 04:55:37;;;;;;;27.63;4.65;;;;;;;;;;5019629;28;20136;-74
2023/08/07 04:58:05;;;;;;;22.98;4.55;;;;;;;;;;5015443;28;20106;-73
2023/08/07 05:00:36;;;;;;;32.90;4.85;;;;;;;;;;5032288;28;20041;-71
2023/08/07 05:03:02;;;;;;;19.98;4.60;;;;;;;;;;5007303;28;20029;-74
2023/08/07 05:05:27;;;;;;;20.38;4.95;;;;;;;;;;5018322;28;20051;-75
2023/08/07 05:07:55;;;;;;;19.85;4.35;;;;;;;;;;5017859;28;20616;-74
2023/08/07 05:10:20;;;;;;;23.35;4.35;;;;;;;;;;4998128;28;20034;-74
2023/08/07 05:12:46;;;;;;;22.92;5.22;;;;;;;;;;4997882;28;20131;-76
2023/08/07 05:15:11;;;;;;;19.63;4.20;;;;;;;;;;4976434;28;20148;-73
2023/08/07 05:17:37;;;;;;;23.83;4.22;;;;;;;;;;4988835;28;20111;-75
2023/08/07 05:20:06;;;;;;;20.65;4.22;;;;;;;;;;4977531;28;20727;-74
2023/08/07 05:22:31;;;;;;;16.30;3.75;;;;;;;;;;4996489;28;20086;-76
2023/08/07 05:24:57;;;;;;;26.05;5.18;;;;;;;;;;4996845;28;20034;-73
2023/08/07 05:27:25;;;;;;;14.05;4.45;;;;;;;;;;4979746;28;20505;-74
2023/08/07 05:29:50;;;;;;;22.73;4.43;;;;;;;;;;4993688;28;20052;-75
2023/08/07 05:32:16;;;;;;;29.23;5.82;;;;;;;;;;4991715;28;20036;-75
2023/08/07 05:34:44;;;;;;;23.70;4.70;;;;;;;;;;4979430;28;20120;-76
2023/08/07 05:37:13;;;;;;;17.08;4.22;;;;;;;;;;4997345;28;20037;-77
2023/08/07 05:39:40;;;;;;;19.88;4.15;;;;;;;;;;4987653;28;20053;-68
2023/08/07 05:42:07;;;;;;;22.15;4.45;;;;;;;;;;5010687;28;20547;-74
2023/08/07 05:44:36;;;;;;;27.98;5.25;;;;;;;;;;5015450;28;20261;-75
2023/08/07 05:47:01;;;;;;;24.42;5.03;;;;;;;;;;5029334;28;20094;-72
2023/08/07 05:49:27;;;;;;;27.10;5.20;;;;;;;;;;5016580;28;20398;-72
2023/08/07 05:51:53;;;;;;;23.38;4.53;;;;;;;;;;4993866;28;20111;-71
2023/08/07 05:54:18;;;;;;;28.42;5.35;;;;;;;;;;5024572;28;20748;-73
2023/08/07 05:56:43;;;;;;;21.70;5.00;;;;;;;;;;5017041;28;20090;-70
2023/08/07 05:59:09;;;;;;;24.90;4.70;;;;;;;;;;5004942;28;20030;-71
2023/08/07 06:01:36;;;;;;;34.03;6.45;;;;;;;;;;5015341;28;20141;-70
2023/08/07 06:04:02;;;;;;;29.45;5.97;;;;;;;;;;5014531;27;20093;-72
2023/08/07 06:06:28;;;;;;;28.63;5.70;;;;;;;;;;5019415;28;20037;-74
2023/08/07 06:08:53;;;;;;;33.33;6.35;;;;;;;;;;5046885;27;20044;-72
2023/08/07 06:11:22;;;;;;;37.72;6.43;;;;;;;;;;5003021;28;20036;-74
2023/08/07 06:13:48;;;;;;;36.85;6.30;;;;;;;;;;5027417;28;22237;-70
2023/08/07 06:16:13;;;;;;;27.10;5.57;;;;;;;;;;5014698;28;20835;-75
2023/08/07 06:18:41;;;;;;;35.05;5.55;;;;;;;;;;5007749;28;20116;-71
2023/08/07 06:21:07;;;;;;;24.20;5.82;;;;;;;;;;5014346;28;20034;-75
2023/08/07 06:23:35;;;;;;;22.38;4.43;;;;;;;;;;5014829;28;20574;-74
2023/08/07 06:26:03;;;;;;;23.30;6.05;;;;;;;;;;5017665;28;20106;-73
2023/08/07 06:28:29;;;;;;;30.00;5.43;;;;;;;;;;5014023;28;20036;-73
2023/08/07 06:31:05;;;;;;;32.78;5.40;;;;;;;;;;5007358;28;20026;-76
2023/08/07 06:33:34;;;;;;;25.40;4.90;;;;;;;;;;4993708;28;20030;-74
2023/08/07 06:35:59;;;;;;;20.92;4.93;;;;;;;;;;5013880;28;20652;-74
2023/08/07 06:38:27;;;;;;;19.88;4.50;;;;;;;;;;5005733;28;20056;-70
2023/08/07 06:40:52;;;;;;;26.58;4.57;;;;;;;;;;5000378;28;20202;-73
2023/08/07 06:43:18;;;;;;;20.30;4.13;;;;;;;;;;4998445;28;20038;-71
2023/08/07 06:45:46;;;;;;;22.75;4.70;;;;;;;;;;5010020;28;20818;-74
2023/08/07 06:48:12;;;;;;;26.35;5.50;;;;;;;;;;5005332;28;20529;-72
2023/08/07 06:50:37;;;;;;;25.70;5.18;;;;;;;;;;5026865;28;20113;-73
2023/08/07 06:53:02;;;;;;;21.17;4.05;;;;;;;;;;5019840;28;20071;-76
2023/08/07 06:55:35;;;;;;;23.85;4.55;;;;;;;;;;5023656;28;20666;-73
2023/08/07 06:58:03;;;;;;;27.13;4.28;;;;;;;;;;5031024;28;20088;-74
2023/08/07 07:00:33;;;;;;;14.30;4.05;;;;;;;;;;5006790;28;20029;-77
2023/08/07 07:02:59;;;;;;;21.10;4.00;;;;;;;;;;5023304;28;20481;-72
2023/08/07 07:05:24;;;;;;;20.65;3.90;;;;;;;;;;4994985;28;20044;-72
2023/08/07 07:07:50;;;;;;;29.77;5.10;;;;;;;;;;5010990;28;20048;-73
2023/08/07 07:10:15;;;;;;;24.67;5.05;;;;;;;;;;5015026;28;20037;-70
2023/08/07 07:12:41;;;;;;;23.08;3.83;;;;;;;;;;5026432;28;20075;-74
2023/08/07 07:15:09;;;;;;;19.73;3.65;;;;;;;;;;5012419;28;21852;-75
2023/08/07 07:17:34;;;;;;;15.75;3.63;;;;;;;;;;5012181;28;20179;-71
2023/08/07 07:20:00;;;;;;;22.25;4.43;;;;;;;;;;5001594;28;20824;-71
2023/08/07 07:22:28;;;;;;;25.45;4.88;;;;;;;;;;5013391;28;20093;-71
2023/08/07 07:24:56;;;;;;;26.38;4.55;;;;;;;;;;5012170;28;20095;-73
2023/08/07 07:27:25;;;;;;;22.85;3.83;;;;;;;;;;5011914;28;20583;-72
2023/08/07 07:29:51;;;;;;;23.20;4.22;;;;;;;;;;5014132;28;20084;-74
2023/08/07 07:32:17;;;;;;;21.95;4.75;;;;;;;;;;5007416;28;20040;-75
2023/08/07 07:34:42;;;;;;;21.13;4.53;;;;;;;;;;5012812;28;20037;-77
2023/08/07 07:37:14;;;;;;;16.42;3.45;;;;;;;;;;5011109;28;20076;-76
2023/08/07 07:39:46;;;;;;;18.67;4.03;;;;;;;;;;5001705;28;20647;-75
2023/08/07 07:42:11;;;;;;;17.42;4.10;;;;;;;;;;5026684;28;20028;-74
2023/08/07 07:44:38;;;;;;;21.98;4.28;;;;;;;;;;5017383;28;20080;-74
2023/08/07 07:47:10;;;;;;;20.30;4.30;;;;;;;;;;5000573;28;20557;-73
2023/08/07 07:49:38;;;;;;;20.75;4.03;;;;;;;;;;5015256;28;20102;-72
2023/08/07 07:52:05;;;;;;;19.95;3.78;;;;;;;;;;5001194;28;20033;-75
2023/08/07 07:54:30;;;;;;;23.63;4.70;;;;;;;;;;5015225;28;20180;-73
2023/08/07 07:56:56;;;;;;;23.13;4.90;;;;;;;;;;5013489;28;20048;-74
2023/08/07 07:59:23;;;;;;;17.00;3.35;;;;;;;;;;5023740;28;20048;-72
2023/08/07 08:01:49;;;;;;;20.38;3.67;;;;;;;;;;5012373;28;20033;-74
2023/08/07 08:04:14;;;;;;;20.48;4.00;;;;;;;;;;5011238;28;20060;-73
2023/08/07 08:06:40;;;;;;;13.63;3.33;;;;;;;;;;5026840;28;20935;-74
2023/08/07 08:09:09;;;;;;;12.45;3.38;;;;;;;;;;5012904;28;20041;-75
2023/08/07 08:11:34;;;;;;;18.95;4.07;;;;;;;;;;5013412;28;20075;-75
2023/08/07 08:13:59;;;;;;;16.35;3.15;;;;;;;;;;5002271;28;20501;-76
2023/08/07 08:16:25;;;;;;;20.08;3.20;;;;;;;;;;5006618;28;20040;-74
2023/08/07 08:18:56;;;;;;;27.92;4.35;;;;;;;;;;4995276;28;20040;-73
2023/08/07 08:21:21;;;;;;;16.70;3.65;;;;;;;;;;4998223;28;20129;-75
2023/08/07 08:23:47;;;;;;;23.92;4.22;;;;;;;;;;4991508;28;20094;-72
2023/08/07 08:26:12;;;;;;;17.40;3.08;;;;;;;;;;4994160;28;20049;-74
2023/08/07 08:28:38;;;;;;;24.83;4.95;;;;;;;;;;4992574;28;20158;-75
2023/08/07 08:31:03;;;;;;;20.98;4.05;;;;;;;;;;4989766;28;20037;-72
2023/08/07 08:33:29;;;;;;;18.67;3.45;;;;;;;;;;4991443;28;20034;-71
2023/08/07 08:35:56;;;;;;;15.77;3.83;;;;;;;;;;4988759;28;20202;-73
2023/08/07 08:38:32;;;;;;;12.52;3.22;;;;;;;;;;4994235;28;20040;-73
2023/08/07 08:40:59;;;;;;;23.77;3.80;;;;;;;;;;5007916;28;20803;-73
2023/08/07 08:43:29;;;;;;;18.67;4.07;;;;;;;;;;4990623;28;20029;-72
2023/08/07 08:45:54;;;;;;;21.48;3.78;;;;;;;;;;4990649;28;20081;-75
2023/08/07 08:48:25;;;;;;;25.67;4.43;;;;;;;;;;4981733;28;21915;-76
2023/08/07 08:50:54;;;;;;;22.33;4.28;;;;;;;;;;4977334;28;20037;-73
2023/08/07 08:53:20;;;;;;;20.95;4.18;;;;;;;;;;5020255;28;22358;-75
2023/08/07 08:55:48;;;;;;;18.42;4.93;;;;;;;;;;5012062;28;20029;-74
2023/08/07 08:58:15;;;;;;;28.35;4.75;;;;;;;;;;5011605;27;22772;-72
2023/08/07 09:00:42;;;;;;;18.58;3.75;;;;;;;;;;5011723;28;20044;-75
2023/08/07 09:03:08;;;;;;;17.20;3.78;;;;;;;;;;5008876;28;20971;-76
2023/08/07 09:05:35;;;;;;;18.33;4.55;;;;;;;;;;5011380;28;20044;-76
2023/08/07 09:08:01;;;;;;;16.90;4.00;;;;;;;;;;5013248;28;20576;-74
2023/08/07 09:10:27;;;;;;;17.95;3.75;;;;;;;;;;5043079;28;20033;-72
2023/08/07 09:12:55;;;;;;;15.48;3.42;;;;;;;;;;5030542;28;20040;-73
2023/08/07 09:15:21;;;;;;;19.92;3.35;;;;;;;;;;5007033;28;20040;-75
2023/08/07 09:17:52;;;;;;;14.88;3.33;;;;;;;;;;5005798;28;20037;-76
2023/08/07 09:20:19;;;;;;;18.40;3.20;;;;;;;;;;5008098;28;20139;-75
2023/08/07 09:22:44;;;;;;;18.65;3.75;;;;;;;;;;5035828;28;20037;-75
2023/08/07 09:25:10;;;;;;;11.43;2.70;;;;;;;;;;5039598;28;20043;-73
2023/08/07 09:27:43;;;;;;;14.00;2.83;;;;;;;;;;5000520;28;20045;-73
2023/08/07 09:30:10;;;;;;;18.83;3.42;;;;;;;;;;5006530;28;20037;-76
2023/08/07 09:32:35;;;;;;;14.73;3.58;;;;;;;;;;5010286;28;20060;-74
2023/08/07 09:35:03;;;;;;;14.18;3.17;;;;;;;;;;5008066;28;20037;-75
2023/08/07 09:37:29;;;;;;;25.00;3.67;;;;;;;;;;5020015;28;20039;-74
2023/08/07 09:39:54;;;;;;;22.50;4.45;;;;;;;;;;5017492;28;20313;-70
2023/08/07 09:42:21;;;;;;;22.30;4.53;;;;;;;;;;5022908;28;20122;-77
2023/08/07 09:44:48;;;;;;;15.05;3.33;;;;;;;;;;5012764;28;20047;-75
2023/08/07 09:47:15;;;;;;;20.08;4.10;;;;;;;;;;5009321;28;20783;-77
2023/08/07 09:49:43;;;;;;;17.15;3.63;;;;;;;;;;5016047;28;22256;-73
2023/08/07 09:52:09;;;;;;;15.70;3.92;;;;;;;;;;5039348;28;20126;-74
2023/08/07 09:54:37;;;;;;;17.48;3.53;;;;;;;;;;5010208;28;20568;-76
2023/08/07 09:57:03;;;;;;;25.30;4.65;;;;;;;;;;5028908;28;21016;-74
2023/08/07 09:59:29;;;;;;;26.10;4.10;;;;;;;;;;5033981;28;20040;-75
2023/08/07 10:01:55;;;;;;;19.63;4.63;;;;;;;;;;5026696;28;20091;-73
2023/08/07 10:04:26;;;;;;;24.75;4.72;;;;;;;;;;5002055;28;20038;-75
2023/08/07 10:06:52;;;;;;;17.40;4.05;;;;;;;;;;5009665;28;20427;-76
2023/08/07 10:09:18;;;;;;;20.00;3.63;;;;;;;;;;5012749;28;20158;-75
2023/08/07 10:11:46;;;;;;;20.98;3.70;;;;;;;;;;5016162;28;20116;-76
2023/08/07 10:14:18;;;;;;;19.73;3.58;;;;;;;;;;5026614;28;20040;-76
2023/08/07 10:16:45;;;;;;;18.40;3.75;;;;;;;;;;5007768;28;20058;-76
2023/08/07 10:19:11;;;;;;;12.70;3.17;;;;;;;;;;5016923;28;20116;-74
2023/08/07 10:21:38;;;;;;;15.13;3.53;;;;;;;;;;5008657;28;20059;-74
2023/08/07 10:24:04;;;;;;;13.50;3.00;;;;;;;;;;5035327;28;20926;-78
2023/08/07 10:26:33;;;;;;;16.00;3.60;;;;;;;;;;5013438;28;20068;-75
2023/08/07 10:29:00;;;;;;;12.05;2.88;;;;;;;;;;5043145;28;20111;-73
2023/08/07 10:31:26;;;;;;;12.25;3.05;;;;;;;;;;5016557;28;20020;-72
2023/08/07 10:33:51;;;;;;;23.00;3.80;;;;;;;;;;5032235;28;20774;-75
2023/08/07 10:36:18;;;;;;;18.33;3.38;;;;;;;;;;5010567;28;20037;-75
2023/08/07 10:38:43;;;;;;;16.80;3.13;;;;;;;;;;5013073;28;20118;-75
2023/08/07 10:41:12;;;;;;;25.55;4.13;;;;;;;;;;5029972;28;20033;-74
2023/08/07 10:43:41;;;;;;;19.85;3.42;;;;;;;;;;5043396;28;20060;-77
2023/08/07 10:46:14;;;;;;;22.95;3.63;;;;;;;;;;5014798;28;20038;-79
2023/08/07 10:48:39;;;;;;;17.48;3.28;;;;;;;;;;5015209;28;20561;-74
2023/08/07 10:51:05;;;;;;;17.55;2.90;;;;;;;;;;5022780;28;20083;-73
2023/08/07 10:53:34;;;;;;;16.85;2.83;;;;;;;;;;5010776;28;20141;-76
2023/08/07 10:56:08;;;;;;;22.90;4.20;;;;;;;;;;5027676;28;20033;-75
2023/08/07 10:58:38;;;;;;;21.25;3.40;;;;;;;;;;5013664;28;20513;-75
2023/08/07 11:01:19;;;;;;;14.80;2.58;;;;;;;;;;5016829;28;20040;-73
2023/08/07 11:03:45;;;;;;;15.10;2.78;;;;;;;;;;5013411;28;20033;-74
2023/08/07 11:06:11;;;;;;;13.73;2.92;;;;;;;;;;5022651;28;20029;-73
2023/08/07 11:08:38;;;;;;;14.73;2.70;;;;;;;;;;5017499;28;20045;-75
2023/08/07 11:11:07;;;;;;;18.55;3.35;;;;;;;;;;5040493;28;20052;-73
2023/08/07 11:13:35;;;;;;;23.30;3.10;;;;;;;;;;5013224;28;20057;-72
2023/08/07 11:16:01;;;;;;;24.05;3.67;;;;;;;;;;5012631;28;20043;-74
2023/08/07 11:18:27;;;;;;;25.38;2.97;;;;;;;;;;5013984;28;20032;-75
2023/08/07 11:20:55;;;;;;;16.38;3.50;;;;;;;;;;5013885;28;20037;-75
2023/08/07 11:23:24;;;;;;;17.90;3.70;;;;;;;;;;5014765;28;20063;-73
2023/08/07 11:25:49;;;;;;;17.90;3.15;;;;;;;;;;5014818;28;20049;-74
2023/08/07 11:28:17;;;;;;;19.88;3.15;;;;;;;;;;5015367;28;20115;-75
2023/08/07 11:30:43;;;;;;;18.42;2.85;;;;;;;;;;5015259;28;20496;-75
2023/08/07 11:33:11;;;;;;;23.42;3.10;;;;;;;;;;5015285;28;20041;-76
2023/08/07 11:35:40;;;;;;;33.63;5.22;;;;;;;;;;5035703;28;20032;-73
2023/08/07 11:38:05;;;;;;;23.50;3.35;;;;;;;;;;5018479;28;20166;-73
2023/08/07 11:40:31;;;;;;;21.65;3.45;;;;;;;;;;5041288;28;20091;-73
2023/08/07 11:42:57;;;;;;;26.70;3.58;;;;;;;;;;5011631;28;20037;-72
2023/08/07 11:45:22;;;;;;;23.73;2.80;;;;;;;;;;5016015;28;20049;-72
2023/08/07 11:47:50;;;;;;;20.63;3.25;;;;;;;;;;5047976;28;20525;-73
2023/08/07 11:50:15;;;;;;;18.15;2.72;;;;;;;;;;5017634;28;20038;-74
2023/08/07 11:52:43;;;;;;;18.40;2.70;;;;;;;;;;5017918;28;20116;-74
2023/08/07 11:55:09;;;;;;;14.95;2.78;;;;;;;;;;5000296;28;20379;-72
2023/08/07 11:57:37;;;;;;;21.98;3.10;;;;;;;;;;5014556;28;20152;-72
2023/08/07 12:00:08;;;;;;;25.20;3.17;;;;;;;;;;5014128;28;20102;-72
2023/08/07 12:02:35;;;;;;;27.10;3.63;;;;;;;;;;5013306;28;20048;-70
2023/08/07 12:05:00;;;;;;;18.63;2.90;;;;;;;;;;5029502;28;20135;-68
2023/08/07 12:07:26;;;;;;;17.33;3.00;;;;;;;;;;5010755;28;20053;-70
2023/08/07 12:09:52;;;;;;;19.42;2.90;;;;;;;;;;5029848;28;20044;-68
2023/08/07 12:12:19;;;;;;;18.15;2.70;;;;;;;;;;5008441;28;20124;-68
2023/08/07 12:14:44;;;;;;;17.20;2.60;;;;;;;;;;5011607;28;20116;-69
2023/08/07 12:17:09;;;;;;;28.42;3.38;;;;;;;;;;5008611;28;20190;-68
2023/08/07 12:19:36;;;;;;;16.50;2.65;;;;;;;;;;5019291;28;20048;-71
2023/08/07 12:22:04;;;;;;;24.73;3.35;;;;;;;;;;5020664;28;20093;-71
2023/08/07 12:24:34;;;;;;;17.52;2.90;;;;;;;;;;5037023;28;20055;-71
2023/08/07 12:26:59;;;;;;;17.45;2.65;;;;;;;;;;5015358;28;20156;-69
2023/08/07 12:29:29;;;;;;;22.42;3.40;;;;;;;;;;5019909;28;20041;-70
2023/08/07 12:31:58;;;;;;;24.67;3.10;;;;;;;;;;5013683;28;20045;-72
2023/08/07 12:34:24;;;;;;;21.80;3.15;;;;;;;;;;4998932;28;20044;-71
2023/08/07 12:36:49;;;;;;;19.00;3.13;;;;;;;;;;5024123;28;20655;-72
2023/08/07 12:39:15;;;;;;;21.05;2.63;;;;;;;;;;5034718;28;20028;-71
2023/08/07 12:41:42;;;;;;;15.52;2.75;;;;;;;;;;5007574;28;20554;-74
2023/08/07 12:44:07;;;;;;;32.72;3.78;;;;;;;;;;5011820;28;20026;-72
2023/08/07 12:46:33;;;;;;;20.52;3.08;;;;;;;;;;5009483;28;20424;-73
2023/08/07 12:48:58;;;;;;;21.60;3.20;;;;;;;;;;5010296;28;20111;-72
2023/08/07 12:51:23;;;;;;;23.13;3.15;;;;;;;;;;5005501;28;20057;-72
2023/08/07 12:53:52;;;;;;;19.02;2.90;;;;;;;;;;5012887;28;20048;-71
2023/08/07 12:56:17;;;;;;;18.73;3.17;;;;;;;;;;5007836;28;21303;-70
2023/08/07 12:58:42;;;;;;;21.33;2.88;;;;;;;;;;5037985;28;20029;-71
2023/08/07 13:01:08;;;;;;;12.98;2.47;;;;;;;;;;5019152;28;20156;-69
2023/08/07 13:03:34;;;;;;;18.58;2.67;;;;;;;;;;5013126;28;20490;-69
2023/08/07 13:05:59;;;;;;;17.52;2.78;;;;;;;;;;5011891;28;22187;-67
2023/08/07 13:08:24;;;;;;;17.10;2.80;;;;;;;;;;5013477;28;20105;-69
2023/08/07 13:10:50;;;;;;;21.90;3.35;;;;;;;;;;5041238;28;20074;-68
2023/08/07 13:13:15;;;;;;;19.60;3.08;;;;;;;;;;5012020;28;20131;-69
2023/08/07 13:15:40;;;;;;;16.20;2.92;;;;;;;;;;5011287;28;20042;-67
2023/08/07 13:18:05;;;;;;;29.13;3.30;;;;;;;;;;5039193;28;20167;-69
2023/08/07 13:20:33;;;;;;;20.60;3.38;;;;;;;;;;5008598;28;20036;-68
2023/08/07 13:22:59;;;;;;;29.23;3.85;;;;;;;;;;5009650;28;20893;-70
2023/08/07 13:25:24;;;;;;;20.13;3.50;;;;;;;;;;5015396;28;20090;-69
2023/08/07 13:27:49;;;;;;;15.20;3.35;;;;;;;;;;5007626;28;20045;-70
2023/08/07 13:30:15;;;;;;;27.67;4.03;;;;;;;;;;5011983;28;20037;-69
2023/08/07 13:32:40;;;;;;;21.77;3.30;;;;;;;;;;5014255;28;20037;-71
2023/08/07 13:35:06;;;;;;;20.15;2.95;;;;;;;;;;5010796;28;20038;-70
2023/08/07 13:37:32;;;;;;;22.27;3.35;;;;;;;;;;5010252;28;20135;-73
2023/08/07 13:39:57;;;;;;;26.75;3.90;;;;;;;;;;5008162;28;20037;-72
2023/08/07 13:42:27;;;;;;;19.95;3.45;;;;;;;;;;5007948;28;20044;-76
2023/08/07 13:44:53;;;;;;;24.10;3.05;;;;;;;;;;5013575;28;20056;-75
2023/08/07 13:47:21;;;;;;;17.27;2.85;;;;;;;;;;5011810;28;20770;-73
2023/08/07 13:49:47;;;;;;;13.73;3.13;;;;;;;;;;5011530;28;20039;-75
2023/08/07 13:52:12;;;;;;;19.40;2.80;;;;;;;;;;5013036;28;20040;-72
2023/08/07 13:54:38;;;;;;;20.77;3.35;;;;;;;;;;5010964;28;20038;-73
2023/08/07 13:57:08;;;;;;;12.60;2.70;;;;;;;;;;5014706;28;20048;-76
2023/08/07 13:59:33;;;;;;;13.80;3.03;;;;;;;;;;5014545;28;20075;-74
2023/08/07 14:01:59;;;;;;;14.35;3.33;;;;;;;;;;5015225;28;20577;-76
2023/08/07 14:04:24;;;;;;;13.35;3.20;;;;;;;;;;5046898;28;20032;-76
2023/08/07 14:06:50;;;;;;;18.77;3.45;;;;;;;;;;5015233;28;20084;-74
2023/08/07 14:09:16;;;;;;;17.50;3.03;;;;;;;;;;5048239;28;20033;-75
2023/08/07 14:11:42;;;;;;;22.85;3.60;;;;;;;;;;5045557;28;20095;-74
2023/08/07 14:14:07;;;;;;;20.52;3.50;;;;;;;;;;5033552;28;20028;-74
2023/08/07 14:16:32;;;;;;;20.73;3.60;;;;;;;;;;5013125;28;20051;-73
2023/08/07 14:18:58;;;;;;;16.83;3.72;;;;;;;;;;5010155;28;20043;-74
2023/08/07 14:21:24;;;;;;;14.38;3.10;;;;;;;;;;5019701;28;20033;-73
2023/08/07 14:23:49;;;;;;;21.98;3.20;;;;;;;;;;5021848;28;20047;-74
2023/08/07 14:26:17;;;;;;;15.95;3.35;;;;;;;;;;5022692;28;20033;-73
2023/08/07 14:28:43;;;;;;;21.45;3.70;;;;;;;;;;5025520;28;20036;-74